createdAt,value
2022-11-28T00:00:23.699Z,6.40
2022-11-28T00:05:28.136Z,6.80
2022-11-28T00:10:31.618Z,6.00
2022-11-28T00:15:38.395Z,5.80
2022-11-28T00:20:41.779Z,6.00
2022-11-28T00:25:46.725Z,5.90
2022-11-28T00:30:52.898Z,5.70
2022-11-28T00:36:00.829Z,5.70
2022-11-28T00:41:09.787Z,5.50
2022-11-28T00:46:19.362Z,5.40
2022-11-28T00:51:30.327Z,5.50
2022-11-28T00:56:34.983Z,5.50
2022-11-28T01:01:40.935Z,5.60
2022-11-28T01:06:48.968Z,5.40
2022-11-28T01:11:55.625Z,5.50
2022-11-28T01:17:13.369Z,5.60
2022-11-28T01:22:19.218Z,5.80
2022-11-28T01:27:25.424Z,5.50
2022-11-28T01:32:30.263Z,5.80
2022-11-28T01:37:35.455Z,6.20
2022-11-28T01:42:38.826Z,5.90
2022-11-28T01:47:45.263Z,6.10
2022-11-28T01:52:50.191Z,5.90
2022-11-28T01:57:53.840Z,6.00
2022-11-28T02:03:01.963Z,6.30
2022-11-28T02:08:06.354Z,6.20
2022-11-28T02:13:30.646Z,5.80
2022-11-28T02:18:50.642Z,5.30
2022-11-28T02:24:16.521Z,5.80
2022-11-28T02:29:42.614Z,5.40
2022-11-28T02:34:52.385Z,5.80
2022-11-28T02:40:04.559Z,5.50
2022-11-28T02:45:10.413Z,5.60
2022-11-28T02:50:17.469Z,5.80
2022-11-28T02:55:21.451Z,5.50
2022-11-28T03:00:28.701Z,5.40
2022-11-28T03:05:39.395Z,5.80
2022-11-28T03:10:46.480Z,5.70
2022-11-28T03:15:56.033Z,5.60
2022-11-28T03:21:01.894Z,6.30
2022-11-28T03:26:08.400Z,6.10
2022-11-28T03:31:14.115Z,5.80
2022-11-28T03:36:23.507Z,6.30
2022-11-28T03:41:30.986Z,5.70
2022-11-28T03:46:36.108Z,5.40
2022-11-28T03:51:42.491Z,5.30
2022-11-28T03:56:49.460Z,5.30
2022-11-28T04:01:54.917Z,5.80
2022-11-28T04:07:05.791Z,6.10
2022-11-28T04:12:12.172Z,6.10
2022-11-28T04:17:19.523Z,5.90
2022-11-28T04:22:25.888Z,5.40
2022-11-28T04:27:32.268Z,5.60
2022-11-28T04:32:38.366Z,5.50
2022-11-28T04:37:44.656Z,6.10
2022-11-28T04:42:52.984Z,6.30
2022-11-28T04:47:56.482Z,6.10
2022-11-28T04:53:11.232Z,6.50
2022-11-28T04:58:21.078Z,6.40
2022-11-28T05:03:29.108Z,5.90
2022-11-28T05:08:34.021Z,6.40
2022-11-28T05:13:39.569Z,6.60
2022-11-28T05:19:07.816Z,6.40
2022-11-28T05:24:12.974Z,6.30
2022-11-28T05:29:18.147Z,6.00
2022-11-28T05:34:21.718Z,6.50
2022-11-28T05:39:26.998Z,6.70
2022-11-28T05:44:31.598Z,6.60
2022-11-28T05:49:35.361Z,6.70
2022-11-28T05:54:40.829Z,6.20
2022-11-28T05:59:44.300Z,6.20
2022-11-28T06:04:48.521Z,6.60
2022-11-28T06:09:54.287Z,6.50
2022-11-28T06:14:57.806Z,6.70
2022-11-28T06:20:01.723Z,7.00
2022-11-28T06:25:07.545Z,7.10
2022-11-28T06:30:14.090Z,6.30
2022-11-28T06:35:18.728Z,6.10
2022-11-28T06:40:23.720Z,5.90
2022-11-28T06:45:28.105Z,6.00
2022-11-28T06:50:34.899Z,6.40
2022-11-28T06:55:39.647Z,6.40
2022-11-28T07:00:45.633Z,6.50
2022-11-28T07:05:49.409Z,6.60
2022-11-28T07:10:54.724Z,6.50
2022-11-28T07:16:00.037Z,6.50
2022-11-28T07:21:03.942Z,6.30
2022-11-28T07:26:14.792Z,6.50
2022-11-28T07:31:19.473Z,6.70
2022-11-28T07:36:26.190Z,6.80
2022-11-28T07:41:35.596Z,6.50
2022-11-28T07:46:40.957Z,6.90
2022-11-28T07:51:44.916Z,7.20
2022-11-28T08:02:17.576Z,7.30
2022-11-28T08:07:21.498Z,7.10
2022-11-28T08:12:27.120Z,7.10
2022-11-28T08:17:30.822Z,7.40
2022-11-28T08:22:34.180Z,7.50
2022-11-28T08:27:40.228Z,6.80
2022-11-28T08:32:44.436Z,7.10
2022-11-28T08:37:48.567Z,6.90
2022-11-28T08:42:53.167Z,7.20
2022-11-28T08:47:56.921Z,7.00
2022-11-28T08:53:07.287Z,6.80
2022-11-28T08:58:17.386Z,6.90
2022-11-28T09:03:21.421Z,7.10
2022-11-28T09:08:25.278Z,7.00
2022-11-28T09:13:35.092Z,6.90
2022-11-28T09:18:47.463Z,6.90
2022-11-28T09:23:59.783Z,6.90
2022-11-28T09:29:06.196Z,6.80
2022-11-28T09:34:09.988Z,6.80
2022-11-28T09:39:13.895Z,6.80
2022-11-28T09:44:22.469Z,6.80
2022-11-28T09:49:35.294Z,7.10
2022-11-28T09:54:48.448Z,7.20
2022-11-28T09:59:53.258Z,7.40
2022-11-28T10:05:03.658Z,7.50
2022-11-28T10:10:12.227Z,7.70
2022-11-28T10:15:32.232Z,7.20
2022-11-28T10:26:07.695Z,8.00
2022-11-28T10:31:16.604Z,8.20
2022-11-28T10:36:26.069Z,8.10
2022-11-28T10:41:31.861Z,8.00
2022-11-28T10:46:44.045Z,7.90
2022-11-28T10:51:52.884Z,8.00
2022-11-28T10:57:02.159Z,8.00
2022-11-28T11:02:20.594Z,8.10
2022-11-28T11:07:29.920Z,8.20
2022-11-28T11:12:33.497Z,8.10
2022-11-28T11:17:38.638Z,8.20
2022-11-28T11:22:43.049Z,8.30
2022-11-28T11:27:50.847Z,8.30
2022-11-28T11:32:56.131Z,8.50
2022-11-28T11:38:17.526Z,8.50
2022-11-28T11:43:29.809Z,8.20
2022-11-28T11:48:39.269Z,8.10
2022-11-28T11:53:43.082Z,8.20
2022-11-28T11:58:49.846Z,8.50
2022-11-28T12:03:58.584Z,8.60
2022-11-28T12:09:07.900Z,8.70
2022-11-28T12:14:29.612Z,9.10
2022-11-28T12:19:38.516Z,8.90
2022-11-28T12:24:47.451Z,8.90
2022-11-28T12:29:53.636Z,9.10
2022-11-28T12:35:16.676Z,9.20
2022-11-28T12:40:26.167Z,9.00
2022-11-28T12:45:36.931Z,8.90
2022-11-28T12:50:45.384Z,9.00
2022-11-28T12:55:51.262Z,8.90
2022-11-28T13:01:06.035Z,8.90
2022-11-28T13:06:34.342Z,8.80
2022-11-28T13:11:50.123Z,8.90
2022-11-28T13:16:57.649Z,9.00
2022-11-28T13:22:29.825Z,9.20
2022-11-28T13:27:37.606Z,9.50
2022-11-28T13:32:45.336Z,9.50
2022-11-28T13:43:23.326Z,9.20
2022-11-28T13:54:47.494Z,9.10
2022-11-28T13:59:58.543Z,9.00
2022-11-28T14:05:06.177Z,9.10
2022-11-28T14:10:58.532Z,8.90
2022-11-28T14:16:13.312Z,8.60
2022-11-28T14:21:23.900Z,8.60
2022-11-28T14:26:31.988Z,8.70
2022-11-28T14:31:36.756Z,8.80
2022-11-28T14:36:42.151Z,9.10
2022-11-28T14:48:30.653Z,9.30
2022-11-28T14:53:46.477Z,9.60
2022-11-28T14:58:50.294Z,9.30
2022-11-28T15:03:58.093Z,9.10
2022-11-28T15:09:05.710Z,8.90
2022-11-28T15:14:21.329Z,8.80
2022-11-28T15:19:28.883Z,9.00
2022-11-28T15:24:33.135Z,8.90
2022-11-28T15:29:37.086Z,8.90
2022-11-28T15:34:43.144Z,8.80
2022-11-28T15:39:49.798Z,8.80
2022-11-28T15:44:57.413Z,8.70
2022-11-28T15:50:04.305Z,8.70
2022-11-28T15:55:17.048Z,8.60
2022-11-28T16:00:21.962Z,9.00
2022-11-28T16:05:27.085Z,9.40
2022-11-28T16:10:33.313Z,9.20
2022-11-28T16:15:42.130Z,9.30
2022-11-28T16:20:50.151Z,9.10
2022-11-28T16:26:01.208Z,9.20
2022-11-28T16:31:12.653Z,9.00
2022-11-28T16:36:22.568Z,9.20
2022-11-28T16:41:26.695Z,9.00
2022-11-28T16:46:34.069Z,9.20
2022-11-28T16:57:14.828Z,9.00
2022-11-28T17:02:20.557Z,8.80
2022-11-28T17:07:32.273Z,8.80
2022-11-28T17:12:39.609Z,8.90
2022-11-28T17:17:47.525Z,10.40
2022-11-28T17:22:56.668Z,10.20
2022-11-28T17:28:06.262Z,9.40
2022-11-28T17:33:15.854Z,9.40
2022-11-28T17:38:21.068Z,8.80
2022-11-28T17:43:39.068Z,9.50
2022-11-28T17:48:58.555Z,10.80
2022-11-28T17:54:03.467Z,9.20
2022-11-28T17:59:14.332Z,8.90
2022-11-28T18:04:22.539Z,9.10
2022-11-28T18:09:29.429Z,9.40
2022-11-28T18:14:40.024Z,9.10
2022-11-28T18:19:47.670Z,9.70
2022-11-28T18:24:57.658Z,9.00
2022-11-28T18:30:10.424Z,8.20
2022-11-28T18:35:17.387Z,9.50
2022-11-28T18:40:51.385Z,9.60
2022-11-28T18:51:29.064Z,9.30
2022-11-28T18:56:36.279Z,9.50
2022-11-28T19:02:43.957Z,9.00
2022-11-28T19:07:51.016Z,8.60
2022-11-28T19:12:54.789Z,8.40
2022-11-28T19:18:05.142Z,8.40
2022-11-28T19:23:11.655Z,8.40
2022-11-28T19:28:16.275Z,8.50
2022-11-28T19:33:24.704Z,8.90
2022-11-28T19:38:28.574Z,8.90
2022-11-28T19:43:38.729Z,9.00
2022-11-28T19:49:05.664Z,8.90
2022-11-28T20:00:14.474Z,9.30
2022-11-28T20:05:27.987Z,9.10
2022-11-28T20:11:05.602Z,8.60
2022-11-28T20:16:35.003Z,8.40
2022-11-28T20:33:30.492Z,8.70
2022-11-28T20:38:52.883Z,8.30
2022-11-28T20:44:07.326Z,8.60
2022-11-28T20:49:29.069Z,8.20
2022-11-28T21:00:26.240Z,7.70
2022-11-28T21:05:31.232Z,8.20
2022-11-28T21:10:36.272Z,8.30
2022-11-28T21:16:16.277Z,8.20
2022-11-28T21:26:55.001Z,8.00
2022-11-28T21:38:06.693Z,8.00
2022-11-28T21:59:57.189Z,8.40
2022-11-28T22:10:54.523Z,8.70
2022-11-28T22:21:51.992Z,8.50
2022-11-28T22:33:06.817Z,8.90
2022-11-28T22:38:12.207Z,8.90
2022-11-28T22:43:17.003Z,8.90
2022-11-28T22:53:54.377Z,8.60
2022-11-28T22:59:12.956Z,8.30
2022-11-28T23:10:11.306Z,8.20
2022-11-28T23:21:04.043Z,8.20
2022-11-28T23:26:09.012Z,8.40
2022-11-28T23:31:15.431Z,8.30
2022-11-28T23:36:41.762Z,8.20
2022-11-28T23:41:54.734Z,8.20
2022-11-28T23:47:04.218Z,8.30
2022-11-28T23:52:11.385Z,8.10
2022-11-28T23:57:21.183Z,8.40
